首页
METAR-TAF:

METAR-TAF

机场 :

科隆/波恩機場

科隆, 德国

纬度: 50-52N, 经度: 007-10E, 海拔: 91米

当前天气观测

该预报发布于25分钟前的21:20 UTC
风速1节,风向
温度 18°C
湿度 73%
气压 1023 hPa
能见度10公里或以上
1500米以下无云,无积雨云

METAR: EDDK 212120Z 10001KT CAVOK 18/13 Q1023 NOSIG

时间: 23:45 (21:45 UTC)

预报

该预报发布于4小时和45分钟前的17:00 UTC
预报有效从21日的 18点(UTC)到 22日的 24点(UTC)
风速6节,风向西北
能见度10公里或以上
1500米以下无云,无积雨云
成为
从 21日的 18点(UTC)到 21日的 21点(UTC)
风速3节,风向多变
成为
从 22日的 07点(UTC)到 22日的 10点(UTC)
风速6节,风向西
成为
从 22日的 18点(UTC)到 22日的 21点(UTC)
风速3节,风向多变

TAF: EDDK 211700Z 2118/2224 32006KT CAVOK BECMG 2118/2121 VRB03KT BECMG 2207/2210 26006KT BECMG 2218/2221 VRB03KT

超过4000个机场的气象观测和天气预报(METAR&TAF报告)。

可查询的气象台以黄色和红色小点在地图上表示。

将鼠标移到小点上方,可查看气象台名称。

然后点击查看天气观测和预报。

如需切换地图:点击带黑十字的绿色按钮放大地图;点击带横线的绿色按钮缩小地图;或者点击绿色箭头查看邻近地区的地图。


METAR-TAF: